createdAt,value
2023-10-18T00:01:56.173Z,101467.69
2023-10-18T00:04:24.944Z,101469.28
2023-10-18T00:06:55.513Z,101460.34
2023-10-18T00:09:41.898Z,101463.72
2023-10-18T00:12:08.714Z,101460.34
2023-10-18T00:14:36.559Z,101456.78
2023-10-18T00:17:03.257Z,101445.47
2023-10-18T00:19:30.049Z,101450.38
2023-10-18T00:21:56.879Z,101447.66
2023-10-18T00:24:23.362Z,101450.84
2023-10-18T00:26:50.003Z,101444.78
2023-10-18T00:29:16.565Z,101452.53
2023-10-18T00:31:43.089Z,101447.31
2023-10-18T00:34:10.232Z,101450.69
2023-10-18T00:36:36.678Z,101442.91
2023-10-18T00:39:21.092Z,101439.38
2023-10-18T00:41:47.845Z,101435.16
2023-10-18T00:44:15.097Z,101437.69
2023-10-18T00:46:41.863Z,101438.50
2023-10-18T00:49:15.361Z,101436.69
2023-10-18T00:51:45.477Z,101436.56
2023-10-18T00:54:12.543Z,101440.22
2023-10-18T00:56:47.791Z,101439.56
2023-10-18T00:59:23.555Z,101440.59
2023-10-18T01:01:58.944Z,101424.88
2023-10-18T01:04:27.553Z,101421.31
2023-10-18T01:06:55.364Z,101416.84
2023-10-18T01:09:22.025Z,101420.38
2023-10-18T01:11:48.659Z,101407.50
2023-10-18T01:14:18.582Z,101410.13
2023-10-18T01:16:46.115Z,101409.34
2023-10-18T01:19:16.485Z,101404.09
2023-10-18T01:21:51.144Z,101405.88
2023-10-18T01:24:17.936Z,101404.28
2023-10-18T01:26:45.366Z,101399.22
2023-10-18T01:29:12.234Z,101393.97
2023-10-18T01:31:46.390Z,101393.16
2023-10-18T01:34:13.291Z,101388.75
2023-10-18T01:36:43.044Z,101387.25
2023-10-18T01:39:26.784Z,101383.88
2023-10-18T01:41:55.850Z,101385.56
2023-10-18T01:44:29.081Z,101370.03
2023-10-18T01:46:57.260Z,101378.63
2023-10-18T01:49:26.432Z,101373.34
2023-10-18T01:51:55.814Z,101373.34
2023-10-18T01:54:26.284Z,101371.72
2023-10-18T01:56:54.689Z,101371.63
2023-10-18T01:59:25.310Z,101369.22
2023-10-18T02:01:54.847Z,101362.38
2023-10-18T02:04:40.540Z,101364.81
2023-10-18T02:07:19.094Z,101368.38
2023-10-18T02:09:50.036Z,101354.16
2023-10-18T02:12:23.107Z,101357.63
2023-10-18T02:14:50.997Z,101356.03
2023-10-18T02:17:20.076Z,101349.13
2023-10-18T02:19:46.709Z,101349.13
2023-10-18T02:22:17.320Z,101347.25
2023-10-18T02:24:44.572Z,101353.25
2023-10-18T02:27:17.078Z,101348.09
2023-10-18T02:29:45.518Z,101349.13
2023-10-18T02:32:25.278Z,101347.25
2023-10-18T02:34:52.902Z,101346.41
2023-10-18T02:37:20.568Z,101338.56
2023-10-18T02:39:54.698Z,101338.84
2023-10-18T02:42:25.754Z,101345.75
2023-10-18T02:44:52.244Z,101337.81
2023-10-18T02:47:23.828Z,101335.94
2023-10-18T02:49:53.170Z,101324.00
2023-10-18T02:52:21.745Z,101329.22
2023-10-18T02:54:52.570Z,101322.94
2023-10-18T02:57:19.522Z,101313.59
2023-10-18T02:59:46.092Z,101312.84
2023-10-18T03:02:15.529Z,101308.66
2023-10-18T03:04:43.949Z,101298.19
2023-10-18T03:07:14.413Z,101292.19
2023-10-18T03:09:41.987Z,101284.53
2023-10-18T03:12:15.032Z,101277.50
2023-10-18T03:14:42.774Z,101268.81
2023-10-18T03:17:29.041Z,101270.50
2023-10-18T03:19:57.068Z,101261.63
2023-10-18T03:22:32.437Z,101252.09
2023-10-18T03:25:02.767Z,101253.78
2023-10-18T03:27:34.590Z,101261.72
2023-10-18T03:30:13.445Z,101260.31
2023-10-18T03:32:39.892Z,101261.91
2023-10-18T03:35:10.553Z,101261.06
2023-10-18T03:37:40.322Z,101259.19
2023-10-18T03:40:18.845Z,101261.06
2023-10-18T03:42:46.459Z,101256.00
2023-10-18T03:45:12.980Z,101254.34
2023-10-18T03:47:39.749Z,101247.44
2023-10-18T03:50:15.571Z,101240.50
2023-10-18T03:52:43.245Z,101245.75
2023-10-18T03:55:18.173Z,101245.75
2023-10-18T03:57:45.293Z,101244.91
2023-10-18T04:00:25.022Z,101234.44
2023-10-18T04:02:54.268Z,101233.78
2023-10-18T04:05:42.209Z,101225.19
2023-10-18T04:08:14.324Z,101221.63
2023-10-18T04:10:44.159Z,101222.47
2023-10-18T04:13:14.715Z,101214.53
2023-10-18T04:15:51.200Z,101213.03
2023-10-18T04:18:27.519Z,101199.97
2023-10-18T04:20:54.361Z,101193.13
2023-10-18T04:23:27.246Z,101188.00
2023-10-18T04:26:04.939Z,101189.88
2023-10-18T04:28:38.373Z,101191.56
2023-10-18T04:31:09.811Z,101180.16
2023-10-18T04:33:36.881Z,101182.03
2023-10-18T04:36:08.213Z,101171.66
2023-10-18T04:38:47.969Z,101176.81
2023-10-18T04:41:26.129Z,101179.41
2023-10-18T04:44:06.901Z,101182.03
2023-10-18T04:46:37.287Z,101166.34
2023-10-18T04:49:10.837Z,101169.88
2023-10-18T04:51:37.493Z,101154.19
2023-10-18T04:54:10.879Z,101152.50
2023-10-18T04:56:39.236Z,101155.69
2023-10-18T04:59:12.559Z,101140.19
2023-10-18T05:01:59.808Z,101138.31
2023-10-18T05:04:47.533Z,101132.16
2023-10-18T05:07:13.942Z,101132.16
2023-10-18T05:09:44.165Z,101129.53
2023-10-18T05:12:29.107Z,101127.84
2023-10-18T05:14:59.492Z,101124.41
2023-10-18T05:17:43.828Z,101118.34
2023-10-18T05:20:19.581Z,101126.19
2023-10-18T05:22:49.209Z,101115.72
2023-10-18T05:25:15.853Z,101105.44
2023-10-18T05:28:01.493Z,101115.16
2023-10-18T05:30:49.670Z,101103.94
2023-10-18T05:33:17.890Z,101109.09
2023-10-18T05:35:44.956Z,101104.69
2023-10-18T05:38:14.103Z,101110.66
2023-10-18T05:40:40.471Z,101103.75
2023-10-18T05:43:13.808Z,101102.91
2023-10-18T05:45:43.638Z,101100.41
2023-10-18T05:48:18.738Z,101102.06
2023-10-18T05:50:57.673Z,101097.78
2023-10-18T05:53:31.542Z,101085.66
2023-10-18T05:55:58.180Z,101088.25
2023-10-18T05:58:27.305Z,101088.00
2023-10-18T06:00:57.231Z,101084.34
2023-10-18T06:03:29.032Z,101086.94
2023-10-18T06:05:59.161Z,101091.44
2023-10-18T06:08:25.904Z,101082.66
2023-10-18T06:11:02.303Z,101087.69
2023-10-18T06:13:28.743Z,101089.47
2023-10-18T06:15:59.959Z,101085.19
2023-10-18T06:18:32.024Z,101073.78
2023-10-18T06:21:09.037Z,101078.06
2023-10-18T06:23:38.106Z,101070.16
2023-10-18T06:26:26.341Z,101064.72
2023-10-18T06:28:54.245Z,101063.69
2023-10-18T06:31:23.465Z,101062.66
2023-10-18T06:33:55.824Z,101060.78
2023-10-18T06:36:23.133Z,101050.97
2023-10-18T06:38:51.595Z,101061.97
2023-10-18T06:41:22.425Z,101048.50
2023-10-18T06:43:53.464Z,101051.06
2023-10-18T06:46:28.401Z,101043.94
2023-10-18T06:49:08.257Z,101038.50
2023-10-18T06:51:51.462Z,101035.59
2023-10-18T06:54:32.957Z,101031.84
2023-10-18T06:57:10.510Z,101028.94
2023-10-18T06:59:38.695Z,101026.13
2023-10-18T07:02:05.978Z,101022.28
2023-10-18T07:04:47.996Z,101023.56
2023-10-18T07:07:15.089Z,101021.47
2023-10-18T07:09:44.783Z,101016.69
2023-10-18T07:12:14.709Z,101026.72
2023-10-18T07:14:42.751Z,101010.63
2023-10-18T07:17:10.885Z,100998.06
2023-10-18T07:19:49.624Z,101001.00
2023-10-18T07:22:20.295Z,100999.75
2023-10-18T07:25:00.314Z,100989.59
2023-10-18T07:27:30.970Z,100983.66
2023-10-18T07:30:01.282Z,100978.72
2023-10-18T07:32:29.902Z,100970.25
2023-10-18T07:34:58.355Z,100969.00
2023-10-18T07:37:33.622Z,100972.53
2023-10-18T07:40:09.120Z,100965.72
2023-10-18T07:42:42.592Z,100968.63
2023-10-18T07:45:10.136Z,100962.94
2023-10-18T07:47:39.798Z,100968.59
2023-10-18T07:50:29.925Z,100951.25
2023-10-18T07:52:56.498Z,100949.03
2023-10-18T07:55:23.695Z,100951.50
2023-10-18T07:57:51.619Z,100952.16
2023-10-18T08:00:24.410Z,100948.00
2023-10-18T08:02:51.711Z,100936.84
2023-10-18T08:05:32.323Z,100941.50
2023-10-18T08:08:04.377Z,100939.63
2023-10-18T08:10:33.242Z,100947.19
2023-10-18T08:13:08.986Z,100936.00
2023-10-18T08:15:39.372Z,100940.53
2023-10-18T08:18:32.836Z,100936.63
2023-10-18T08:21:07.637Z,100934.34
2023-10-18T08:23:34.280Z,100934.13
2023-10-18T08:26:06.464Z,100930.16
2023-10-18T08:28:42.454Z,100931.47
2023-10-18T08:31:35.030Z,100927.13
2023-10-18T08:34:06.563Z,100924.31
2023-10-18T08:36:33.650Z,100916.47
2023-10-18T08:39:02.614Z,100917.38
2023-10-18T08:41:34.197Z,100912.66
2023-10-18T08:44:20.834Z,100914.47
2023-10-18T08:47:15.153Z,100905.56
2023-10-18T08:49:45.613Z,100907.03
2023-10-18T08:52:13.035Z,100899.78
2023-10-18T08:54:43.031Z,100900.63
2023-10-18T08:57:10.373Z,100893.19
2023-10-18T08:59:51.788Z,100900.78
2023-10-18T09:02:20.006Z,100892.19
2023-10-18T09:04:47.883Z,100888.97
2023-10-18T09:07:24.071Z,100884.09
2023-10-18T09:09:58.807Z,100869.06
2023-10-18T09:12:34.812Z,100862.88
2023-10-18T09:15:21.429Z,100850.13
2023-10-18T09:17:47.868Z,100856.81
2023-10-18T09:20:16.584Z,100848.06
2023-10-18T09:22:49.374Z,100846.22
2023-10-18T09:25:15.890Z,100840.91
2023-10-18T09:27:42.249Z,100843.28
2023-10-18T09:30:12.053Z,100844.66
2023-10-18T09:32:40.125Z,100840.47
2023-10-18T09:35:08.911Z,100838.38
2023-10-18T09:37:39.817Z,100831.31
2023-10-18T09:40:07.340Z,100826.22
2023-10-18T09:42:33.831Z,100825.06
2023-10-18T09:45:01.083Z,100811.59
2023-10-18T09:47:29.217Z,100803.41
2023-10-18T09:49:59.109Z,100795.50
2023-10-18T09:52:25.974Z,100809.13
2023-10-18T09:54:55.016Z,100798.78
2023-10-18T09:57:26.195Z,100800.66
2023-10-18T09:59:56.428Z,100796.91
2023-10-18T10:02:25.181Z,100789.28
2023-10-18T10:04:56.499Z,100783.91
2023-10-18T10:07:38.238Z,100775.66
2023-10-18T10:10:09.493Z,100768.19
2023-10-18T10:12:37.145Z,100755.28
2023-10-18T10:15:14.395Z,100751.03
2023-10-18T10:17:46.487Z,100746.28
2023-10-18T10:20:15.710Z,100736.66
2023-10-18T10:22:44.098Z,100726.47
2023-10-18T10:25:33.144Z,100733.38
2023-10-18T10:28:16.321Z,100730.31
2023-10-18T10:30:45.613Z,100734.59
2023-10-18T10:33:14.992Z,100721.34
2023-10-18T10:35:46.133Z,100717.00
2023-10-18T10:38:19.702Z,100710.00
2023-10-18T10:41:06.162Z,100713.69
2023-10-18T10:44:08.245Z,100700.22
2023-10-18T10:46:38.800Z,100702.66
2023-10-18T10:49:43.868Z,100694.28
2023-10-18T10:52:10.602Z,100686.84
2023-10-18T10:54:38.447Z,100676.41
2023-10-18T10:57:10.123Z,100674.84
2023-10-18T10:59:43.016Z,100671.91
2023-10-18T11:02:09.544Z,100659.28
2023-10-18T11:04:56.725Z,100648.41
2023-10-18T11:07:23.920Z,100633.66
2023-10-18T11:09:52.845Z,100629.03
2023-10-18T11:12:19.642Z,100623.81
2023-10-18T11:14:53.777Z,100615.22
2023-10-18T11:17:24.623Z,100607.78
2023-10-18T11:19:54.387Z,100599.50
2023-10-18T11:22:24.046Z,100587.06
2023-10-18T11:24:51.610Z,100587.06
2023-10-18T11:27:35.723Z,100592.28
2023-10-18T11:30:23.869Z,100583.50
2023-10-18T11:32:52.173Z,100577.97
2023-10-18T11:35:26.930Z,100576.25
2023-10-18T11:37:54.047Z,100556.28
2023-10-18T11:40:22.660Z,100564.78
2023-10-18T11:43:11.925Z,100552.91
2023-10-18T11:45:40.563Z,100546.31
2023-10-18T11:48:08.348Z,100538.97
2023-10-18T11:50:52.062Z,100528.97
2023-10-18T11:53:24.522Z,100532.94
2023-10-18T11:55:56.694Z,100514.56
2023-10-18T11:58:24.595Z,100512.91
2023-10-18T12:00:56.945Z,100507.34
2023-10-18T12:03:24.684Z,100492.28
2023-10-18T12:05:51.545Z,100500.84
2023-10-18T12:08:18.738Z,100495.09
2023-10-18T12:10:45.443Z,100496.53
2023-10-18T12:13:14.711Z,100486.16
2023-10-18T12:15:41.216Z,100478.63
2023-10-18T12:18:10.487Z,100465.41
2023-10-18T12:20:37.415Z,100472.47
2023-10-18T12:23:22.247Z,100479.09
2023-10-18T12:25:49.773Z,100466.34
2023-10-18T12:28:20.199Z,100458.16
2023-10-18T12:30:53.939Z,100453.16
2023-10-18T12:33:29.577Z,100446.06
2023-10-18T12:35:57.773Z,100431.41
2023-10-18T12:38:33.966Z,100432.28
2023-10-18T12:41:03.105Z,100419.47
2023-10-18T12:43:33.310Z,100424.03
2023-10-18T12:46:02.156Z,100424.94
2023-10-18T12:48:28.953Z,100425.38
2023-10-18T12:50:56.123Z,100425.41
2023-10-18T12:53:26.901Z,100412.03
2023-10-18T12:56:17.909Z,100400.81
2023-10-18T12:58:55.990Z,100392.56
2023-10-18T13:01:33.010Z,100396.84
2023-10-18T13:04:01.079Z,100380.63
2023-10-18T13:06:31.762Z,100370.06
2023-10-18T13:09:19.565Z,100364.94
2023-10-18T13:11:51.592Z,100357.84
2023-10-18T13:14:25.595Z,100356.69
2023-10-18T13:16:55.319Z,100339.25
2023-10-18T13:19:21.767Z,100338.25
2023-10-18T13:21:50.778Z,100331.44
2023-10-18T13:24:23.780Z,100327.59
2023-10-18T13:26:55.077Z,100325.59
2023-10-18T13:29:22.385Z,100311.97
2023-10-18T13:31:53.577Z,100295.78
2023-10-18T13:34:20.332Z,100292.13
2023-10-18T13:36:52.086Z,100286.81
2023-10-18T13:39:19.460Z,100289.75
2023-10-18T13:41:50.388Z,100264.91
2023-10-18T13:44:21.341Z,100260.28
2023-10-18T13:46:56.133Z,100252.97
2023-10-18T13:49:35.356Z,100243.41
2023-10-18T13:52:01.835Z,100238.13
2023-10-18T13:54:29.991Z,100245.63
2023-10-18T13:56:56.730Z,100232.03
2023-10-18T13:59:23.276Z,100223.81
2023-10-18T14:01:55.737Z,100209.09
2023-10-18T14:04:30.717Z,100215.81
2023-10-18T14:06:59.109Z,100205.56
2023-10-18T14:09:26.102Z,100208.88
2023-10-18T14:11:53.103Z,100204.25
2023-10-18T14:14:20.254Z,100202.91
2023-10-18T14:16:47.252Z,100207.75
2023-10-18T14:19:14.537Z,100206.91
2023-10-18T14:21:43.440Z,100190.50
2023-10-18T14:24:16.204Z,100187.53
2023-10-18T14:26:42.846Z,100183.78
2023-10-18T14:29:10.233Z,100176.31
2023-10-18T14:31:37.098Z,100160.59
2023-10-18T14:34:04.674Z,100169.69
2023-10-18T14:36:33.604Z,100175.16
2023-10-18T14:39:01.001Z,100170.03
2023-10-18T14:41:32.616Z,100165.59
2023-10-18T14:44:01.162Z,100164.44
2023-10-18T14:46:31.110Z,100158.00
2023-10-18T14:49:00.494Z,100164.59
2023-10-18T14:51:28.140Z,100164.44
2023-10-18T14:53:54.706Z,100159.00
2023-10-18T14:56:24.006Z,100148.09
2023-10-18T14:58:55.837Z,100147.13
2023-10-18T15:01:22.662Z,100139.50
2023-10-18T15:03:49.961Z,100137.69
2023-10-18T15:06:20.533Z,100130.91
2023-10-18T15:08:50.733Z,100135.34
2023-10-18T15:11:20.387Z,100119.00
2023-10-18T15:13:48.496Z,100120.31
2023-10-18T15:16:19.458Z,100119.78
2023-10-18T15:18:50.426Z,100108.72
2023-10-18T15:21:17.540Z,100103.09
2023-10-18T15:23:45.146Z,100096.47
2023-10-18T15:26:12.498Z,100086.53
2023-10-18T15:28:41.902Z,100081.56
2023-10-18T15:31:13.307Z,100084.53
2023-10-18T15:33:41.293Z,100082.56
2023-10-18T15:36:24.949Z,100074.13
2023-10-18T15:38:55.722Z,100075.28
2023-10-18T15:41:26.376Z,100065.66
2023-10-18T15:43:56.893Z,100059.72
2023-10-18T15:46:28.693Z,100059.91
2023-10-18T15:48:58.450Z,100061.06
2023-10-18T15:51:25.165Z,100053.28
2023-10-18T15:53:57.059Z,100036.59
2023-10-18T15:56:28.494Z,100025.03
2023-10-18T15:58:56.672Z,100022.56
2023-10-18T16:01:23.956Z,100022.03
2023-10-18T16:03:50.812Z,100011.47
2023-10-18T16:06:19.246Z,100014.09
2023-10-18T16:08:48.177Z,100017.09
2023-10-18T16:11:15.154Z,100011.13
2023-10-18T16:13:41.925Z,100015.75
2023-10-18T16:16:10.873Z,100016.41
2023-10-18T16:18:39.256Z,100014.44
2023-10-18T16:21:10.767Z,100020.38
2023-10-18T16:23:41.210Z,100013.41
2023-10-18T16:26:12.071Z,100009.09
2023-10-18T16:28:39.169Z,100007.28
2023-10-18T16:31:12.212Z,100008.75
2023-10-18T16:33:41.870Z,100002.50
2023-10-18T16:36:09.497Z,99993.25
2023-10-18T16:38:37.551Z,99993.25
2023-10-18T16:41:06.116Z,99987.50
2023-10-18T16:43:33.399Z,99986.16
2023-10-18T16:46:03.109Z,99982.34
2023-10-18T16:48:31.080Z,99980.88
2023-10-18T16:51:03.696Z,99977.41
2023-10-18T16:53:31.670Z,99967.66
2023-10-18T16:55:58.152Z,99965.69
2023-10-18T16:58:28.241Z,99956.78
2023-10-18T17:01:09.444Z,99951.34
2023-10-18T17:03:41.143Z,99941.09
2023-10-18T17:06:09.740Z,99948.34
2023-10-18T17:08:37.564Z,99944.53
2023-10-18T17:11:08.323Z,99940.59
2023-10-18T17:13:36.064Z,99926.06
2023-10-18T17:16:02.841Z,99917.63
2023-10-18T17:18:29.329Z,99915.66
2023-10-18T17:21:11.572Z,99915.97
2023-10-18T17:23:42.151Z,99924.88
2023-10-18T17:26:09.676Z,99914.50
2023-10-18T17:28:36.644Z,99914.66
2023-10-18T17:31:03.201Z,99919.59
2023-10-18T17:33:31.499Z,99922.25
2023-10-18T17:35:58.014Z,99919.41
2023-10-18T17:38:24.421Z,99925.84
2023-10-18T17:40:52.020Z,99914.63
2023-10-18T17:43:19.087Z,99916.13
2023-10-18T17:45:47.113Z,99916.94
2023-10-18T17:48:16.143Z,99907.34
2023-10-18T17:50:42.723Z,99919.25
2023-10-18T17:53:13.816Z,99911.66
2023-10-18T17:55:43.408Z,99900.91
2023-10-18T17:58:12.533Z,99890.50
2023-10-18T18:00:42.042Z,99882.28
2023-10-18T18:03:08.739Z,99893.69
2023-10-18T18:05:40.240Z,99885.28
2023-10-18T18:08:15.360Z,99872.09
2023-10-18T18:10:50.903Z,99867.16
2023-10-18T18:13:25.901Z,99861.53
2023-10-18T18:15:52.655Z,99856.25
2023-10-18T18:18:21.186Z,99837.28
2023-10-18T18:20:50.117Z,99847.03
2023-10-18T18:23:17.683Z,99831.84
2023-10-18T18:25:47.128Z,99834.13
2023-10-18T18:28:14.774Z,99832.84
2023-10-18T18:30:44.830Z,99824.25
2023-10-18T18:33:12.234Z,99822.09
2023-10-18T18:35:38.950Z,99814.84
2023-10-18T18:38:05.511Z,99815.47
2023-10-18T18:40:31.949Z,99800.50
2023-10-18T18:43:00.910Z,99799.81
2023-10-18T18:45:27.347Z,99793.72
2023-10-18T18:47:53.784Z,99796.53
2023-10-18T18:50:20.224Z,99781.69
2023-10-18T18:52:50.194Z,99779.03
2023-10-18T18:55:17.727Z,99778.22
2023-10-18T18:57:46.514Z,99772.13
2023-10-18T19:00:17.134Z,99770.13
2023-10-18T19:02:51.143Z,99767.16
2023-10-18T19:05:18.548Z,99759.56
2023-10-18T19:07:45.287Z,99754.28
2023-10-18T19:10:15.921Z,99746.38
2023-10-18T19:12:43.626Z,99737.47
2023-10-18T19:15:20.592Z,99739.47
2023-10-18T19:17:49.223Z,99731.69
2023-10-18T19:20:18.479Z,99729.22
2023-10-18T19:22:48.328Z,99728.75
2023-10-18T19:25:17.576Z,99717.00
2023-10-18T19:27:45.152Z,99726.56
2023-10-18T19:30:12.938Z,99709.41
2023-10-18T19:32:40.040Z,99705.13
2023-10-18T19:35:10.585Z,99699.50
2023-10-18T19:37:38.073Z,99700.19
2023-10-18T19:40:08.954Z,99703.47
2023-10-18T19:42:36.104Z,99697.19
2023-10-18T19:45:03.724Z,99694.41
2023-10-18T19:47:30.284Z,99689.97
2023-10-18T19:49:57.031Z,99683.03
2023-10-18T19:52:23.508Z,99678.75
2023-10-18T19:54:49.934Z,99679.72
2023-10-18T19:57:16.912Z,99669.34
2023-10-18T19:59:43.320Z,99665.56
2023-10-18T20:02:11.463Z,99650.41
2023-10-18T20:04:37.974Z,99652.06
2023-10-18T20:07:04.342Z,99661.25
2023-10-18T20:09:34.471Z,99656.94
2023-10-18T20:12:01.411Z,99659.25
2023-10-18T20:14:28.223Z,99650.19
2023-10-18T20:16:54.850Z,99653.81
2023-10-18T20:19:21.322Z,99652.31
2023-10-18T20:21:48.036Z,99653.13
2023-10-18T20:24:14.483Z,99651.28
2023-10-18T20:26:41.040Z,99657.50
2023-10-18T20:29:09.364Z,99651.88
2023-10-18T20:31:36.014Z,99640.03
2023-10-18T20:34:02.456Z,99642.00
2023-10-18T20:36:29.054Z,99637.03
2023-10-18T20:38:55.765Z,99635.69
2023-10-18T20:41:22.124Z,99625.84
2023-10-18T20:43:48.559Z,99614.25
2023-10-18T20:46:17.713Z,99621.84
2023-10-18T20:48:52.249Z,99610.94
2023-10-18T20:51:19.694Z,99605.16
2023-10-18T20:56:18.696Z,99593.47
2023-10-18T20:58:45.837Z,99595.44
2023-10-18T21:01:21.852Z,99588.50
2023-10-18T21:03:51.000Z,99590.50
2023-10-18T21:06:20.647Z,99582.75
2023-10-18T21:08:49.266Z,99590.78
2023-10-18T21:11:18.176Z,99579.97
2023-10-18T21:13:45.275Z,99574.00
2023-10-18T21:16:13.657Z,99570.41
2023-10-18T21:18:43.110Z,99566.13
2023-10-18T21:21:11.840Z,99557.56
2023-10-18T21:23:39.977Z,99561.19
2023-10-18T21:26:10.529Z,99542.09
2023-10-18T21:28:37.149Z,99535.19
2023-10-18T21:31:05.035Z,99526.63
2023-10-18T21:33:33.207Z,99523.00
2023-10-18T21:36:09.754Z,99529.94
2023-10-18T21:38:36.876Z,99528.78
2023-10-18T21:41:06.453Z,99535.53
2023-10-18T21:43:34.267Z,99522.34
2023-10-18T21:46:08.217Z,99527.63
2023-10-18T21:48:36.005Z,99528.44
2023-10-18T21:51:06.357Z,99513.66
2023-10-18T21:53:33.573Z,99511.34
2023-10-18T21:56:01.934Z,99509.53
2023-10-18T21:58:31.892Z,99495.56
2023-10-18T22:01:03.840Z,99492.94
2023-10-18T22:03:35.226Z,99489.47
2023-10-18T22:06:08.193Z,99481.72
2023-10-18T22:08:40.549Z,99474.66
2023-10-18T22:11:07.078Z,99478.13
2023-10-18T22:13:34.282Z,99465.78
2023-10-18T22:16:02.122Z,99463.16
2023-10-18T22:18:30.221Z,99454.28
2023-10-18T22:21:01.019Z,99447.38
2023-10-18T22:23:35.954Z,99445.72
2023-10-18T22:26:14.945Z,99436.00
2023-10-18T22:28:42.803Z,99447.66
2023-10-18T22:31:09.461Z,99451.28
2023-10-18T22:33:37.011Z,99443.56
2023-10-18T22:36:08.390Z,99433.03
2023-10-18T22:38:40.363Z,99437.16
2023-10-18T22:41:22.291Z,99435.19
2023-10-18T22:43:52.329Z,99426.31
2023-10-18T22:46:34.323Z,99417.44
2023-10-18T22:49:10.585Z,99409.53
2023-10-18T22:51:46.100Z,99422.34
2023-10-18T22:54:12.793Z,99414.63
2023-10-18T22:56:49.741Z,99413.47
2023-10-18T22:59:23.823Z,99404.63
2023-10-18T23:01:50.877Z,99404.28
2023-10-18T23:04:25.418Z,99397.84
2023-10-18T23:06:56.768Z,99400.34
2023-10-18T23:09:25.905Z,99400.34
2023-10-18T23:11:57.683Z,99397.72
2023-10-18T23:14:27.638Z,99391.47
2023-10-18T23:16:59.465Z,99385.84
2023-10-18T23:19:28.934Z,99384.84
2023-10-18T23:22:00.424Z,99381.91
2023-10-18T23:24:32.891Z,99378.28
2023-10-18T23:27:19.280Z,99370.22
2023-10-18T23:29:47.107Z,99367.44
2023-10-18T23:32:17.504Z,99363.47
2023-10-18T23:34:51.628Z,99364.13
2023-10-18T23:37:31.519Z,99365.44
2023-10-18T23:39:58.016Z,99360.84
2023-10-18T23:42:27.031Z,99352.63
2023-10-18T23:45:05.694Z,99349.63
2023-10-18T23:47:37.800Z,99344.88
2023-10-18T23:50:23.107Z,99347.03
2023-10-18T23:52:50.908Z,99337.78
2023-10-18T23:55:23.803Z,99334.81
2023-10-18T23:57:50.358Z,99337.09
